Chatham, Canada
Current Conditions -  °F | °C
As of 9:00 AM on Monday 24 Nov 2014 (Local Time) from CYCK Reporting Station
Scattered Clouds Scattered Clouds  
Wind Chill: 54°   Ceiling: Unl
Heat Index: 54°   Visibility: 9mi
Dew Point: 50°   Wind: 24mph
Humidity: 88%   Direction: 200°SSW
Pressure: 29.17"   Gusts: 32mph
Location:  42.4°N, 82.19°W
Report Text: CYCK 241400Z AUTO 20021G28KT 9SM FEW036 SCT060 12/10 A2917 RMK LTNG DIST W SLP880 DENSITY ALT 1200FT
Loading
Personal Weather Stations






























Interactive Weather Map New forecast layout! Learn more

10-Day Weather Forecast

Advertisements
Track Severe Weather on mobile